This is the latest recevied weather packets stored in our database for station/object N7WSS. If no packets are shown the sender has not sent any weather packets the latest 10 day(s).
| Time | Temp. | Humidity | Pressure | Rain* | Wind** | Luminosity | Snow |
|---|---|---|---|---|---|---|---|
| 1788621768 | 30.56° C | 47% | 1015.5 hPa | 0 mm | - | - | - |
| 1788621468 | 29.44° C | 49% | 1015.5 hPa | 0 mm | - | - | - |
| 1788621164 | 29.44° C | 50% | 1015.3 hPa | 0 mm | - | - | - |
| 1788620864 | 28.89° C | 52% | 1015.5 hPa | 0 mm | - | - | - |
| 1788620563 | 28.33° C | 53% | 1015.5 hPa | 0 mm | - | - | - |
| 1788620261 | 28.33° C | 53% | 1015.5 hPa | 0 mm | - | - | - |
| 1788619956 | 28.33° C | 54% | 1015.6 hPa | 0 mm | - | - | - |
| 1788619655 | 28.33° C | 55% | 1015.6 hPa | 0 mm | - | - | - |
| 1788619350 | 27.22° C | 57% | 1015.6 hPa | 0 mm | - | - | - |
| 1788619049 | 26.11° C | 61% | 1015.5 hPa | 0 mm | - | - | - |
| 1788618749 | 26.67° C | 61% | 1015.4 hPa | 0 mm | - | - | - |
| 1788618447 | 26.67° C | 60% | 1015.4 hPa | 0 mm | - | - | - |
| 1788618142 | 26.11° C | 61% | 1015.1 hPa | 0 mm | - | - | - |
| 1788617838 | 25.56° C | 63% | 1015.3 hPa | 0 mm | - | - | - |
| 1788617534 | 25° C | 64% | 1015.3 hPa | 0 mm | - | - | - |
| 1788617229 | 25.56° C | 63% | 1015.3 hPa | 0 mm | - | - | - |
| 1788616923 | 25.56° C | 62% | 1015.1 hPa | 0 mm | - | - | - |
| 1788616617 | 25° C | 65% | 1015.2 hPa | 0 mm | - | - | - |
| 1788616314 | 24.44° C | 67% | 1015.2 hPa | 0 mm | - | - | - |
| 1788616013 | 23.89° C | 69% | 1015.1 hPa | 0 mm | - | - | - |
| 1788615712 | 23.33° C | 70% | 1015 hPa | 0 mm | - | - | - |
| 1788615408 | 22.78° C | 73% | 1014.9 hPa | 0 mm | - | - | - |
| 1788615108 | 22.22° C | 74% | 1014.8 hPa | 0 mm | - | - | - |
| 1788614807 | 21.67° C | 76% | 1014.9 hPa | 0 mm | - | - | - |
| 1788614502 | 21.67° C | 76% | 1014.7 hPa | 0 mm | - | - | - |
* Rain latest hour (hover to see other rain measurements)
** Current wind speed in m/s (hover to see current wind gust speed)